Latest Weather Observations for Moree

IDN60801

Issued at 5:53 pm EDT Monday 5 December 2022 (issued every 10 minutes, with the page automatically refreshed every 10 minutes)

About weather observations | Map of weather stations | Latest weather observations for NSW | Other Formats
Station Details ID: 053115 Name: MOREE AERO Lat: -29.49 Lon: 149.85 Height: 213.0 m
Data from the previous 72 hours. | See also: Recent months at Moree
Date/Time
EDT
Temp
°C
App
Temp
°C
Dew
Point
°C
Rel
Hum
%
Delta-T
°C
Wind Press
QNH
hPa
Press
MSL
hPa
Rain since
9am
mm
Dir  Spd
km/h
Gust
km/h
Spd
kts
Gust
kts
05/05:30pm 31.9 27.8 4.6 18 14.4 SW 15 20 8 11 1006.6 1005.4 0.0
05/05:00pm 32.4 27.5 4.2 17 14.9 SW 19 30 10 16 1006.9 1005.7 0.0
05/04:30pm 31.8 27.9 5.3 19 14.1 WSW 15 24 8 13 1007.1 1005.9 0.0
05/04:00pm 32.6 28.8 7.4 21 14.0 S 17 26 9 14 1007.4 1006.2 0.0
05/03:30pm 31.2 28.0 4.9 19 13.9 WSW 11 19 6 10 1007.7 1006.5 0.0
05/03:00pm 31.8 26.7 6.1 20 13.9 SSW 22 32 12 17 1008.0 1006.8 0.0
05/02:30pm 31.5 28.5 7.9 23 13.1 SW 13 24 7 13 1008.5 1007.3 0.0
05/02:00pm 30.5 28.0 8.3 25 12.4 WSW 11 22 6 12 1008.9 1007.7 0.0
05/01:30pm 30.8 28.2 7.9 24 12.7 WNW 11 24 6 13 1009.3 1008.1 0.0
05/01:00pm 29.7 27.1 7.6 25 12.1 SSW 11 15 6 8 1009.8 1008.5 0.0
05/12:30pm 29.2 27.5 9.9 30 10.9 SSW 9 15 5 8 1010.3 1009.1 0.0
05/12:00pm 27.6 24.4 8.5 30 10.5 NW 15 26 8 14 1010.5 1009.3 0.0
05/11:30am 28.3 26.5 10.9 34 10.0 NW 11 26 6 14 1011.0 1009.8 0.0
05/11:00am 26.4 24.5 11.7 40 8.5 NW 13 22 7 12 1011.6 1010.4 0.0
05/10:30am 25.7 23.4 12.9 45 7.5 N 17 28 9 15 1011.7 1010.5 0.0
05/10:00am 24.0 22.1 12.9 50 6.5 NNW 15 22 8 12 1012.3 1011.1 0.0
05/09:30am 23.0 20.0 12.0 50 6.3 N 19 26 10 14 1012.4 1011.2 0.0
05/09:00am 22.1 19.3 12.6 55 5.5 NNE 19 28 10 15 1012.5 1011.3 0.0
05/08:30am 21.2 18.2 12.6 58 4.9 NNE 20 28 11 15 1012.7 1011.5 0.0
05/08:00am 20.4 17.1 12.9 62 4.3 NNE 22 28 12 15 1012.7 1011.5 0.0
05/07:30am 19.1 16.1 12.1 64 3.9 NE 19 22 10 12 1012.4 1011.2 0.0
05/07:00am 17.8 16.2 11.6 67 3.4 NE 11 15 6 8 1012.1 1010.9 0.0
05/06:30am 15.7 13.5 10.9 73 2.6 ENE 13 17 7 9 1011.8 1010.6 0.0
05/06:00am 14.4 12.4 10.2 76 2.2 ENE 11 13 6 7 1011.6 1010.4 0.0
05/05:30am 14.8 12.8 10.0 73 2.5 ENE 11 13 6 7 1011.4 1010.2 0.0
05/05:00am 15.0 13.2 9.6 70 2.8 ENE 9 11 5 6 1011.2 1010.0 0.0
05/04:30am 15.8 13.4 10.1 69 3.0 ENE 13 15 7 8 1011.0 1009.8 0.0
05/04:00am 16.1 13.3 10.0 67 3.2 ENE 15 17 8 9 1010.8 1009.6 0.0
05/03:30am 17.0 13.4 9.9 63 3.8 ENE 19 24 10 13 1010.9 1009.7 0.0
05/03:00am 17.6 13.9 10.0 61 4.1 ENE 20 26 11 14 1011.0 1009.8 0.0
05/02:30am 16.9 13.0 9.6 62 3.9 ENE 20 26 11 14 1011.1 1009.9 0.0
05/02:00am 16.6 12.5 8.8 60 4.1 E 20 28 11 15 1011.3 1010.1 0.0
05/01:30am 17.7 14.6 8.8 56 4.7 ESE 15 19 8 10 1011.5 1010.3 0.0
05/01:00am 16.7 14.2 8.4 58 4.3 S 11 13 6 7 1011.7 1010.5 0.0
05/12:30am 18.0 15.6 8.6 54 4.9 S 11 11 6 6 1012.0 1010.8 0.0
05/12:00am 18.4 16.7 8.4 52 5.2 S 7 9 4 5 1012.3 1011.1 0.0
 
Date/Time
EDT
Temp
°C
App
Temp
°C
Dew
Point
°C
Rel
Hum
%
Delta-T
°C
Wind Press
QNH
hPa
Press
MSL
hPa
Rain since
9am
mm
Dir  Spd
km/h
Gust
km/h
Spd
kts
Gust
kts
04/11:30pm 18.2 15.9 7.6 50 5.4 S 9 9 5 5 1012.3 1011.1 0.0
04/11:00pm 18.6 15.5 7.1 47 5.9 SSW 13 13 7 7 1012.4 1011.2 0.0
04/10:30pm 19.6 16.3 6.4 42 6.7 SW 13 15 7 8 1012.6 1011.4 0.0
04/10:00pm 20.6 17.1 5.4 37 7.6 SW 13 13 7 7 1012.5 1011.3 0.0
04/09:30pm 20.0 17.8 6.4 41 6.9 WSW 7 13 4 7 1012.2 1011.0 0.0
04/09:00pm 21.2 18.5 5.6 36 7.8 WNW 9 11 5 6 1011.9 1010.7 0.0
04/08:30pm 22.4 19.5 4.9 32 8.8 SW 9 13 5 7 1011.6 1010.4 0.0
04/08:00pm 24.7 22.2 5.0 28 10.0 SW 7 9 4 5 1011.2 1010.0 0.0
04/07:30pm 26.2 23.4 5.2 26 10.8 WSW 9 11 5 6 1011.1 1009.9 0.0
04/07:00pm 27.5 25.0 4.5 23 11.8 S 7 9 4 5 1011.0 1009.8 0.0
04/06:30pm 28.3 25.4 4.6 22 12.2 SSE 9 13 5 7 1010.6 1009.4 0.0
04/06:00pm 27.3 23.6 4.4 23 11.7 SSW 13 19 7 10 1010.5 1009.3 0.0
04/05:30pm 27.5 24.5 3.9 22 12.0 SSW 9 13 5 7 1010.5 1009.3 0.0
04/05:00pm 28.8 25.6 5.0 22 12.4 SW 11 19 6 10 1010.7 1009.5 0.0
04/04:30pm 28.7 24.7 6.7 25 11.8 SSW 17 24 9 13 1010.9 1009.7 0.0
04/04:00pm 27.4 23.8 5.1 24 11.6 SSW 13 28 7 15 1011.3 1010.1 0.0
04/03:30pm 27.8 25.1 5.4 24 11.7 ESE 9 22 5 12 1011.6 1010.4 0.0
04/03:00pm 28.8 25.6 6.8 25 11.8 WNW 13 32 7 17 1012.0 1010.8 0.0
04/02:30pm 26.4 22.0 4.8 25 11.1 S 17 28 9 15 1012.5 1011.3 0.0
04/02:00pm 27.7 24.5 7.0 27 11.1 SSW 13 32 7 17 1012.8 1011.6 0.0
04/01:30pm 26.1 23.0 5.7 27 10.6 E 11 17 6 9 1013.3 1012.1 0.0
04/01:00pm 26.4 23.4 5.9 27 10.7 WSW 11 17 6 9 1013.7 1012.5 0.0
04/12:30pm 27.1 23.8 6.5 27 10.9 N 13 19 7 10 1014.1 1012.9 0.0
04/12:00pm 25.1 22.8 5.8 29 10.0 N 7 13 4 7 1014.6 1013.4 0.0
04/11:30am 24.8 21.7 7.4 33 9.2 E 13 20 7 11 1015.0 1013.8 0.0
04/11:00am 23.6 20.6 7.7 36 8.4 ENE 13 20 7 11 1015.3 1014.1 0.0
04/10:30am 22.1 18.3 7.5 39 7.6 ENE 17 20 9 11 1015.7 1014.5 0.0
04/10:00am 21.7 18.0 7.9 41 7.3 ENE 17 24 9 13 1015.8 1014.6 0.0
04/09:30am 20.8 17.3 8.8 46 6.4 E 17 22 9 12 1015.9 1014.7 0.0
04/09:00am 19.9 15.8 8.6 48 6.0 E 20 26 11 14 1016.0 1014.8 0.0
04/08:30am 20.9 16.4 8.5 45 6.6 E 22 30 12 16 1016.0 1014.8 0.0
04/08:00am 19.0 15.2 9.2 53 5.2 ESE 19 26 10 14 1015.8 1014.6 0.0
04/07:30am 17.4 14.9 9.6 60 4.1 E 13 17 7 9 1015.6 1014.4 0.0
04/07:00am 16.2 13.3 9.6 65 3.5 E 15 19 8 10 1015.3 1014.1 0.0
04/06:30am 15.5 13.0 9.6 68 3.1 ENE 13 17 7 9 1015.0 1013.8 0.0
04/06:00am 15.4 12.8 9.3 67 3.2 ENE 13 17 7 9 1014.8 1013.6 0.0
04/05:30am 15.9 12.9 9.3 65 3.4 ENE 15 20 8 11 1014.3 1013.2 0.0
04/05:00am 15.5 12.9 9.4 67 3.2 ENE 13 17 7 9 1014.1 1012.9 0.0
04/04:30am 15.8 13.6 9.5 66 3.3 ENE 11 15 6 8 1014.0 1012.8 0.0
04/04:00am 16.2 12.8 9.2 63 3.7 ENE 17 20 9 11 1013.9 1012.7 0.0
04/03:30am 16.6 13.9 9.1 61 3.9 E 13 17 7 9 1014.0 1012.8 0.0
04/03:00am 17.4 14.4 9.1 58 4.4 E 15 19 8 10 1013.8 1012.6 0.0
04/02:30am 17.7 14.2 8.8 56 4.7 E 17 22 9 12 1013.9 1012.7 0.0
04/02:00am 18.1 14.5 8.4 53 5.0 E 17 24 9 13 1014.0 1012.8 0.0
04/01:30am 19.6 15.6 8.3 48 5.9 ENE 19 24 10 13 1014.3 1013.2 0.0
04/01:00am 19.2 16.5 8.8 51 5.5 ENE 13 17 7 9 1014.6 1013.4 0.0
04/12:30am 20.5 16.6 8.8 47 6.2 ENE 19 24 10 13 1014.8 1013.6 0.0
04/12:00am 21.2 17.1 8.5 44 6.7 ENE 20 32 11 17 1014.8 1013.6 0.0
 
Date/Time
EDT
Temp
°C
App
Temp
°C
Dew
Point
°C
Rel
Hum
%
Delta-T
°C
Wind Press
QNH
hPa
Press
MSL
hPa
Rain since
9am
mm
Dir  Spd
km/h
Gust
km/h
Spd
kts
Gust
kts
03/11:30pm 21.6 16.3 8.5 43 7.0 NE 26 35 14 19 1014.7 1013.5 0.0
03/11:00pm 22.2 17.0 8.7 42 7.2 NE 26 33 14 18 1014.5 1013.3 0.0
03/10:30pm 23.0 18.9 8.7 40 7.7 ENE 20 33 11 18 1014.0 1012.8 0.0
03/10:00pm 22.6 18.9 6.4 35 8.3 ESE 15 19 8 10 1013.5 1012.3 0.0
03/09:30pm 22.8 18.1 6.1 34 8.6 ESE 20 28 11 15 1013.1 1011.9 0.0
03/09:00pm 23.9 19.7 5.8 31 9.3 SE 17 22 9 12 1012.7 1011.5 0.0
03/08:30pm 23.6 20.3 6.4 33 8.9 SSE 13 17 7 9 1012.4 1011.2 0.0
03/08:00pm 24.9 21.8 5.7 29 9.9 SSE 11 19 6 10 1012.0 1010.8 0.0
03/07:30pm 26.2 25.2 5.7 27 10.7 CALM 0 0 0 0 1011.7 1010.5 0.0
03/07:00pm 27.6 24.8 5.2 24 11.7 SE 9 13 5 7 1011.5 1010.3 0.0
03/06:30pm 28.2 24.9 4.5 22 12.2 ESE 11 17 6 9 1011.2 1010.0 0.0
03/06:00pm 29.2 26.0 5.3 22 12.6 ENE 11 19 6 10 1010.9 1009.7 0.0
03/05:30pm 29.1 25.4 4.6 21 12.7 NE 13 22 7 12 1010.9 1009.7 0.0
03/05:00pm 29.9 27.8 5.9 22 12.8 SW 6 11 3 6 1010.8 1009.6 0.0
03/04:30pm 28.9 24.9 3.0 19 13.1 ESE 13 24 7 13 1011.1 1009.9 0.0
03/04:00pm 29.5 26.6 4.9 21 12.9 ENE 9 17 5 9 1011.4 1010.2 0.0
03/03:30pm 27.8 23.5 3.5 21 12.3 ESE 15 24 8 13 1011.7 1010.5 0.0
03/03:00pm 27.8 23.4 4.8 23 11.9 SE 17 32 9 17 1012.1 1010.9 0.0
03/02:30pm 28.9 24.1 5.7 23 12.3 SSE 20 32 11 17 1012.4 1011.2 0.0
03/02:00pm 27.8 23.8 4.8 23 11.9 ESE 15 41 8 22 1012.9 1011.7 0.0
03/01:30pm 27.6 24.0 5.2 24 11.6 SSE 13 20 7 11 1013.4 1012.2 0.0
03/01:00pm 27.1 22.8 5.4 25 11.3 SE 17 41 9 22 1013.8 1012.6 0.0
03/12:30pm 26.8 23.5 6.2 27 10.8 SE 13 22 7 12 1014.3 1013.2 0.0
03/12:00pm 25.5 21.4 6.2 29 10.1 E 17 28 9 15 1014.9 1013.7 0.0
03/11:30am 25.3 22.0 6.5 30 9.9 E 13 22 7 12 1015.2 1014.0 0.0
03/11:00am 24.5 20.7 5.8 30 9.6 E 15 24 8 13 1015.4 1014.2 0.0
03/10:30am 24.1 20.8 6.4 32 9.2 E 13 20 7 11 1015.6 1014.4 0.0
03/10:00am 23.2 19.2 6.5 34 8.6 ESE 17 28 9 15 1015.8 1014.6 0.0
03/09:30am 23.1 19.4 8.0 38 8.0 E 17 30 9 16 1015.8 1014.6 0.0
03/09:00am 20.8 17.5 8.1 44 6.7 ESE 15 26 8 14 1016.1 1014.9 0.0
03/08:30am 19.8 15.7 8.5 48 5.9 ESE 20 30 11 16 1016.0 1014.8 0.0
03/08:00am 19.2 16.5 9.1 52 5.4 ESE 13 20 7 11 1015.9 1014.7 0.0
03/07:30am 17.8 15.4 10.2 61 4.1 ESE 13 15 7 8 1015.5 1014.3 0.0
03/07:00am 16.1 14.4 10.0 67 3.2 E 9 13 5 7 1015.1 1013.9 0.0
03/06:30am 14.5 11.9 9.5 72 2.6 ENE 13 15 7 8 1014.9 1013.7 0.0
03/06:00am 13.3 11.0 9.0 75 2.2 ENE 11 13 6 7 1014.7 1013.5 0.0
03/05:30am 14.0 11.8 9.4 74 2.4 NNE 11 13 6 7 1014.6 1013.4 0.0
03/05:00am 13.8 11.7 9.6 76 2.2 NE 11 13 6 7 1014.3 1013.2 0.0
03/04:30am 14.2 11.6 9.4 73 2.5 E 13 15 7 8 1014.1 1012.9 0.0
03/04:00am 14.2 12.4 9.4 73 2.5 ENE 9 13 5 7 1014.2 1013.1 0.0
03/03:30am 14.7 12.4 9.1 69 2.9 ENE 11 13 6 7 1014.2 1013.1 0.0
03/03:00am 15.1 12.9 9.2 68 3.1 E 11 13 6 7 1014.1 1012.9 0.0
03/02:30am 15.4 12.8 9.5 68 3.1 E 13 17 7 9 1014.2 1013.1 0.0
03/02:00am 15.8 12.4 9.2 65 3.4 E 17 26 9 14 1014.3 1013.2 0.0
03/01:30am 16.5 12.8 9.4 63 3.7 E 19 24 10 13 1014.1 1012.9 0.0
03/01:00am 16.8 13.0 9.2 61 4.0 E 19 28 10 15 1014.3 1013.2 0.0
03/12:30am 17.8 14.8 9.2 57 4.5 E 15 20 8 11 1014.6 1013.4 0.0
03/12:00am 17.9 15.3 9.3 57 4.5 E 13 19 7 10 1014.5 1013.3 0.0
 
Date/Time
EDT
Temp
°C
App
Temp
°C
Dew
Point
°C
Rel
Hum
%
Delta-T
°C
Wind Press
QNH
hPa
Press
MSL
hPa
Rain since
9am
mm
Dir  Spd
km/h
Gust
km/h
Spd
kts
Gust
kts
02/11:30pm 18.8 15.4 9.3 54 5.0 ENE 17 24 9 13 1014.3 1013.2 0.0
02/11:00pm 19.1 16.3 8.7 51 5.5 E 13 19 7 10 1014.0 1012.8 0.0
02/10:30pm 20.8 15.9 8.4 45 6.6 ESE 24 33 13 18 1013.4 1012.2 0.0
02/10:00pm 21.5 15.6 9.1 45 6.7 ESE 30 39 16 21 1012.9 1011.7 0.0
02/09:30pm 22.1 15.8 9.6 45 6.8 ESE 33 46 18 25 1012.5 1011.3 0.0
02/09:14pm 22.4 16.2 9.2 43 7.1 ESE 32 50 17 27 1012.1 1010.9 0.0
02/09:00pm 21.4 17.4 8.3 43 6.9 SE 19 26 10 14 1011.8 1010.6 0.0
02/08:30pm 23.4 19.5 7.1 35 8.5 SE 17 19 9 10 1011.3 1010.1 0.0
02/08:00pm 23.9 20.3 6.7 33 9.0 ESE 15 19 8 10 1011.0 1009.8 0.0
02/07:30pm 25.5 21.9 6.7 30 9.9 ESE 15 20 8 11 1010.7 1009.5 0.0
02/07:00pm 26.9 23.9 5.8 26 11.0 SSE 11 13 6 7 1010.3 1009.1 0.0
02/06:30pm 27.6 23.2 6.4 26 11.2 SE 19 22 10 12 1009.9 1008.6 0.0
02/06:00pm 27.7 24.0 6.5 26 11.3 SSE 15 20 8 11 1009.6 1008.3 0.0

Other formats

Comma delimited format used in spreadsheet applications
http://www.bom.gov.au/fwo/IDN60801/IDN60801.95527.axf

JavaScript Object Notation format (JSON) in row-major order
http://www.bom.gov.au/fwo/IDN60801/IDN60801.95527.json

Data quality

Most of these data are generated automatically and are frequently updated. Quality checks on data are not normally performed. It is possible for incorrect values to appear. Refer to information at About Latest Weather Observations and please check the disclaimer before using these data.